sensor_id;sensor_type;location;lat;lon;timestamp;P1;durP1;ratioP1;P2;durP2;ratioP2
48076;SDS011;33854;57.708;12.008;2023-06-05T00:00:42;3.30;;;1.10;;
48076;SDS011;33854;57.708;12.008;2023-06-05T00:03:08;3.17;;;0.90;;
48076;SDS011;33854;57.708;12.008;2023-06-05T00:05:33;2.37;;;1.20;;
48076;SDS011;33854;57.708;12.008;2023-06-05T00:07:59;1.83;;;1.40;;
48076;SDS011;33854;57.708;12.008;2023-06-05T00:10:24;2.70;;;1.37;;
48076;SDS011;33854;57.708;12.008;2023-06-05T00:12:50;2.30;;;1.23;;
48076;SDS011;33854;57.708;12.008;2023-06-05T00:15:15;3.37;;;1.40;;
48076;SDS011;33854;57.708;12.008;2023-06-05T00:17:41;2.17;;;1.20;;
48076;SDS011;33854;57.708;12.008;2023-06-05T00:20:06;1.83;;;1.00;;
48076;SDS011;33854;57.708;12.008;2023-06-05T00:22:34;1.92;;;1.23;;
48076;SDS011;33854;57.708;12.008;2023-06-05T00:25:00;1.60;;;1.30;;
48076;SDS011;33854;57.708;12.008;2023-06-05T00:27:25;2.57;;;1.37;;
48076;SDS011;33854;57.708;12.008;2023-06-05T00:29:52;1.10;;;1.10;;
48076;SDS011;33854;57.708;12.008;2023-06-05T00:32:18;1.47;;;1.03;;
48076;SDS011;33854;57.708;12.008;2023-06-05T00:34:43;2.10;;;1.33;;
48076;SDS011;33854;57.708;12.008;2023-06-05T00:37:09;3.50;;;1.67;;
48076;SDS011;33854;57.708;12.008;2023-06-05T00:39:34;1.70;;;1.13;;
48076;SDS011;33854;57.708;12.008;2023-06-05T00:42:00;1.50;;;1.40;;
48076;SDS011;33854;57.708;12.008;2023-06-05T00:44:25;3.60;;;1.50;;
48076;SDS011;33854;57.708;12.008;2023-06-05T00:46:51;1.40;;;1.30;;
48076;SDS011;33854;57.708;12.008;2023-06-05T00:51:44;2.10;;;1.58;;
48076;SDS011;33854;57.708;12.008;2023-06-05T00:54:11;2.55;;;1.58;;
48076;SDS011;33854;57.708;12.008;2023-06-05T00:56:39;1.30;;;1.23;;
48076;SDS011;33854;57.708;12.008;2023-06-05T00:59:07;2.28;;;1.50;;
48076;SDS011;33854;57.708;12.008;2023-06-05T01:01:32;2.83;;;1.10;;
48076;SDS011;33854;57.708;12.008;2023-06-05T01:03:59;2.80;;;1.38;;
48076;SDS011;33854;57.708;12.008;2023-06-05T01:06:26;3.10;;;1.40;;
48076;SDS011;33854;57.708;12.008;2023-06-05T01:08:52;2.60;;;1.63;;
48076;SDS011;33854;57.708;12.008;2023-06-05T01:13:54;1.42;;;1.33;;
48076;SDS011;33854;57.708;12.008;2023-06-05T01:16:26;1.55;;;1.45;;
48076;SDS011;33854;57.708;12.008;2023-06-05T01:18:55;2.70;;;1.48;;
48076;SDS011;33854;57.708;12.008;2023-06-05T01:21:27;2.05;;;1.70;;
48076;SDS011;33854;57.708;12.008;2023-06-05T01:26:20;2.53;;;1.67;;
48076;SDS011;33854;57.708;12.008;2023-06-05T01:28:51;1.65;;;1.55;;
48076;SDS011;33854;57.708;12.008;2023-06-05T01:31:18;4.15;;;1.55;;
48076;SDS011;33854;57.708;12.008;2023-06-05T01:33:49;2.35;;;1.60;;
48076;SDS011;33854;57.708;12.008;2023-06-05T01:36:21;2.40;;;1.40;;
48076;SDS011;33854;57.708;12.008;2023-06-05T01:38:48;2.13;;;1.25;;
48076;SDS011;33854;57.708;12.008;2023-06-05T01:41:15;1.40;;;1.30;;
48076;SDS011;33854;57.708;12.008;2023-06-05T01:43:42;1.58;;;1.20;;
48076;SDS011;33854;57.708;12.008;2023-06-05T01:46:10;1.65;;;1.52;;
48076;SDS011;33854;57.708;12.008;2023-06-05T01:48:35;25.10;;;16.33;;
48076;SDS011;33854;57.708;12.008;2023-06-05T01:51:03;3.25;;;2.38;;
48076;SDS011;33854;57.708;12.008;2023-06-05T01:53:29;3.33;;;1.63;;
48076;SDS011;33854;57.708;12.008;2023-06-05T01:55:55;2.55;;;1.73;;
48076;SDS011;33854;57.708;12.008;2023-06-05T01:58:25;1.90;;;1.58;;
48076;SDS011;33854;57.708;12.008;2023-06-05T02:00:52;2.38;;;1.55;;
48076;SDS011;33854;57.708;12.008;2023-06-05T02:03:18;2.75;;;1.88;;
48076;SDS011;33854;57.708;12.008;2023-06-05T02:05:44;1.85;;;1.50;;
48076;SDS011;33854;57.708;12.008;2023-06-05T02:08:11;1.88;;;1.77;;
48076;SDS011;33854;57.708;12.008;2023-06-05T02:10:38;2.50;;;1.58;;
48076;SDS011;33854;57.708;12.008;2023-06-05T02:13:08;2.88;;;1.60;;
48076;SDS011;33854;57.708;12.008;2023-06-05T02:15:34;2.30;;;1.70;;
48076;SDS011;33854;57.708;12.008;2023-06-05T02:18:00;1.98;;;1.52;;
48076;SDS011;33854;57.708;12.008;2023-06-05T02:20:25;2.33;;;1.97;;
48076;SDS011;33854;57.708;12.008;2023-06-05T02:22:51;2.10;;;1.40;;
48076;SDS011;33854;57.708;12.008;2023-06-05T02:25:18;1.70;;;1.40;;
48076;SDS011;33854;57.708;12.008;2023-06-05T02:27:44;2.05;;;1.77;;
48076;SDS011;33854;57.708;12.008;2023-06-05T02:30:10;2.07;;;1.87;;
48076;SDS011;33854;57.708;12.008;2023-06-05T02:35:06;2.40;;;1.92;;
48076;SDS011;33854;57.708;12.008;2023-06-05T02:37:31;1.77;;;1.50;;
48076;SDS011;33854;57.708;12.008;2023-06-05T02:40:02;2.25;;;2.00;;
48076;SDS011;33854;57.708;12.008;2023-06-05T02:42:33;2.08;;;1.88;;
48076;SDS011;33854;57.708;12.008;2023-06-05T02:47:25;7.38;;;1.95;;
48076;SDS011;33854;57.708;12.008;2023-06-05T02:49:50;4.53;;;2.00;;
48076;SDS011;33854;57.708;12.008;2023-06-05T02:52:16;1.90;;;1.57;;
48076;SDS011;33854;57.708;12.008;2023-06-05T02:54:41;5.17;;;2.03;;
48076;SDS011;33854;57.708;12.008;2023-06-05T02:57:07;4.57;;;1.60;;
48076;SDS011;33854;57.708;12.008;2023-06-05T02:59:33;2.25;;;1.73;;
48076;SDS011;33854;57.708;12.008;2023-06-05T03:02:07;2.42;;;1.52;;
48076;SDS011;33854;57.708;12.008;2023-06-05T03:04:32;3.80;;;1.95;;
48076;SDS011;33854;57.708;12.008;2023-06-05T03:06:58;1.83;;;1.50;;
48076;SDS011;33854;57.708;12.008;2023-06-05T03:09:29;6.80;;;2.33;;
48076;SDS011;33854;57.708;12.008;2023-06-05T03:11:55;4.93;;;1.83;;
48076;SDS011;33854;57.708;12.008;2023-06-05T03:14:21;2.03;;;1.35;;
48076;SDS011;33854;57.708;12.008;2023-06-05T03:16:47;1.80;;;1.30;;
48076;SDS011;33854;57.708;12.008;2023-06-05T03:19:12;2.27;;;1.80;;
48076;SDS011;33854;57.708;12.008;2023-06-05T03:21:38;3.00;;;1.83;;
48076;SDS011;33854;57.708;12.008;2023-06-05T03:24:08;2.03;;;1.80;;
48076;SDS011;33854;57.708;12.008;2023-06-05T03:26:38;1.67;;;1.58;;
48076;SDS011;33854;57.708;12.008;2023-06-05T03:29:04;2.45;;;1.60;;
48076;SDS011;33854;57.708;12.008;2023-06-05T03:31:30;2.17;;;1.70;;
48076;SDS011;33854;57.708;12.008;2023-06-05T03:33:56;3.23;;;1.80;;
48076;SDS011;33854;57.708;12.008;2023-06-05T03:36:23;2.88;;;1.75;;
48076;SDS011;33854;57.708;12.008;2023-06-05T03:38:48;1.63;;;1.53;;
48076;SDS011;33854;57.708;12.008;2023-06-05T03:41:14;2.70;;;1.70;;
48076;SDS011;33854;57.708;12.008;2023-06-05T03:43:40;2.53;;;1.70;;
48076;SDS011;33854;57.708;12.008;2023-06-05T03:46:05;2.10;;;1.30;;
48076;SDS011;33854;57.708;12.008;2023-06-05T03:50:57;3.93;;;1.80;;
48076;SDS011;33854;57.708;12.008;2023-06-05T03:53:25;2.00;;;1.50;;
48076;SDS011;33854;57.708;12.008;2023-06-05T03:55:53;3.47;;;1.73;;
48076;SDS011;33854;57.708;12.008;2023-06-05T03:58:19;3.27;;;1.60;;
48076;SDS011;33854;57.708;12.008;2023-06-05T04:00:46;2.10;;;2.00;;
48076;SDS011;33854;57.708;12.008;2023-06-05T04:03:15;2.70;;;1.95;;
48076;SDS011;33854;57.708;12.008;2023-06-05T04:05:41;1.90;;;1.73;;
48076;SDS011;33854;57.708;12.008;2023-06-05T04:08:07;2.47;;;2.10;;
48076;SDS011;33854;57.708;12.008;2023-06-05T04:10:37;3.10;;;1.98;;
48076;SDS011;33854;57.708;12.008;2023-06-05T04:13:03;4.20;;;2.13;;
48076;SDS011;33854;57.708;12.008;2023-06-05T04:15:28;9.47;;;2.50;;
48076;SDS011;33854;57.708;12.008;2023-06-05T04:17:54;2.77;;;2.27;;
48076;SDS011;33854;57.708;12.008;2023-06-05T04:20:20;4.65;;;2.63;;
48076;SDS011;33854;57.708;12.008;2023-06-05T04:22:49;4.47;;;2.25;;
48076;SDS011;33854;57.708;12.008;2023-06-05T04:25:15;5.45;;;2.50;;
48076;SDS011;33854;57.708;12.008;2023-06-05T04:27:41;2.90;;;2.33;;
48076;SDS011;33854;57.708;12.008;2023-06-05T04:30:09;4.45;;;3.08;;
48076;SDS011;33854;57.708;12.008;2023-06-05T04:32:36;6.07;;;3.35;;
48076;SDS011;33854;57.708;12.008;2023-06-05T04:37:30;8.02;;;4.28;;
48076;SDS011;33854;57.708;12.008;2023-06-05T04:39:56;10.52;;;6.20;;
48076;SDS011;33854;57.708;12.008;2023-06-05T04:42:23;11.52;;;6.32;;
48076;SDS011;33854;57.708;12.008;2023-06-05T04:44:58;11.03;;;6.43;;
48076;SDS011;33854;57.708;12.008;2023-06-05T04:47:28;12.43;;;7.05;;
48076;SDS011;33854;57.708;12.008;2023-06-05T04:52:24;10.55;;;5.90;;
48076;SDS011;33854;57.708;12.008;2023-06-05T04:54:49;14.43;;;7.97;;
48076;SDS011;33854;57.708;12.008;2023-06-05T04:57:15;12.50;;;7.28;;
48076;SDS011;33854;57.708;12.008;2023-06-05T04:59:44;14.88;;;7.32;;
48076;SDS011;33854;57.708;12.008;2023-06-05T05:02:10;12.70;;;8.35;;
48076;SDS011;33854;57.708;12.008;2023-06-05T05:04:37;15.32;;;9.43;;
48076;SDS011;33854;57.708;12.008;2023-06-05T05:07:02;13.10;;;9.53;;
48076;SDS011;33854;57.708;12.008;2023-06-05T05:09:29;13.80;;;8.38;;
48076;SDS011;33854;57.708;12.008;2023-06-05T05:11:56;13.63;;;7.90;;
48076;SDS011;33854;57.708;12.008;2023-06-05T05:14:23;17.73;;;9.20;;
48076;SDS011;33854;57.708;12.008;2023-06-05T05:16:49;16.10;;;9.38;;
48076;SDS011;33854;57.708;12.008;2023-06-05T05:19:15;18.87;;;9.50;;
48076;SDS011;33854;57.708;12.008;2023-06-05T05:21:40;15.70;;;9.03;;
48076;SDS011;33854;57.708;12.008;2023-06-05T05:24:06;15.73;;;8.37;;
48076;SDS011;33854;57.708;12.008;2023-06-05T05:26:32;19.83;;;9.20;;
48076;SDS011;33854;57.708;12.008;2023-06-05T05:28:57;18.73;;;9.43;;
48076;SDS011;33854;57.708;12.008;2023-06-05T05:31:23;16.03;;;9.77;;
48076;SDS011;33854;57.708;12.008;2023-06-05T05:33:48;18.80;;;11.30;;
48076;SDS011;33854;57.708;12.008;2023-06-05T05:36:14;23.50;;;12.27;;
48076;SDS011;33854;57.708;12.008;2023-06-05T05:38:40;19.80;;;11.47;;
48076;SDS011;33854;57.708;12.008;2023-06-05T05:41:05;18.43;;;11.27;;
48076;SDS011;33854;57.708;12.008;2023-06-05T05:43:31;20.27;;;12.00;;
48076;SDS011;33854;57.708;12.008;2023-06-05T05:45:56;18.80;;;10.67;;
48076;SDS011;33854;57.708;12.008;2023-06-05T05:48:22;19.87;;;9.73;;
48076;SDS011;33854;57.708;12.008;2023-06-05T05:50:48;19.17;;;10.38;;
48076;SDS011;33854;57.708;12.008;2023-06-05T05:53:13;21.20;;;11.70;;
48076;SDS011;33854;57.708;12.008;2023-06-05T05:55:39;23.77;;;11.97;;
48076;SDS011;33854;57.708;12.008;2023-06-05T05:58:04;17.47;;;11.00;;
48076;SDS011;33854;57.708;12.008;2023-06-05T06:00:30;19.10;;;11.93;;
48076;SDS011;33854;57.708;12.008;2023-06-05T06:02:55;22.50;;;11.37;;
48076;SDS011;33854;57.708;12.008;2023-06-05T06:05:22;17.10;;;11.70;;
48076;SDS011;33854;57.708;12.008;2023-06-05T06:07:47;18.70;;;12.03;;
48076;SDS011;33854;57.708;12.008;2023-06-05T06:10:13;23.13;;;12.47;;
48076;SDS011;33854;57.708;12.008;2023-06-05T06:12:39;18.13;;;11.18;;
48076;SDS011;33854;57.708;12.008;2023-06-05T06:15:06;18.15;;;10.73;;
48076;SDS011;33854;57.708;12.008;2023-06-05T06:17:33;21.10;;;12.73;;
48076;SDS011;33854;57.708;12.008;2023-06-05T06:19:58;21.10;;;12.60;;
48076;SDS011;33854;57.708;12.008;2023-06-05T06:22:24;17.63;;;11.90;;
48076;SDS011;33854;57.708;12.008;2023-06-05T06:24:49;18.03;;;12.00;;
48076;SDS011;33854;57.708;12.008;2023-06-05T06:27:17;17.48;;;11.75;;
48076;SDS011;33854;57.708;12.008;2023-06-05T06:29:47;16.97;;;12.53;;
48076;SDS011;33854;57.708;12.008;2023-06-05T06:32:14;19.92;;;12.27;;
48076;SDS011;33854;57.708;12.008;2023-06-05T06:34:41;20.85;;;11.55;;
48076;SDS011;33854;57.708;12.008;2023-06-05T06:37:09;16.00;;;11.35;;
48076;SDS011;33854;57.708;12.008;2023-06-05T06:39:36;18.67;;;11.23;;
48076;SDS011;33854;57.708;12.008;2023-06-05T06:42:02;15.83;;;11.43;;
48076;SDS011;33854;57.708;12.008;2023-06-05T06:44:27;22.40;;;12.17;;
48076;SDS011;33854;57.708;12.008;2023-06-05T06:46:53;15.60;;;11.47;;
48076;SDS011;33854;57.708;12.008;2023-06-05T06:49:19;21.73;;;12.23;;
48076;SDS011;33854;57.708;12.008;2023-06-05T06:51:44;19.73;;;12.63;;
48076;SDS011;33854;57.708;12.008;2023-06-05T06:54:10;21.07;;;12.37;;
48076;SDS011;33854;57.708;12.008;2023-06-05T06:56:35;24.43;;;13.43;;
48076;SDS011;33854;57.708;12.008;2023-06-05T06:59:09;20.05;;;12.45;;
48076;SDS011;33854;57.708;12.008;2023-06-05T07:01:43;18.23;;;11.57;;
48076;SDS011;33854;57.708;12.008;2023-06-05T07:04:16;23.67;;;12.73;;
48076;SDS011;33854;57.708;12.008;2023-06-05T07:06:45;22.08;;;11.98;;
48076;SDS011;33854;57.708;12.008;2023-06-05T07:09:13;20.15;;;11.73;;
48076;SDS011;33854;57.708;12.008;2023-06-05T07:11:39;25.67;;;13.03;;
48076;SDS011;33854;57.708;12.008;2023-06-05T07:14:05;23.08;;;12.88;;
48076;SDS011;33854;57.708;12.008;2023-06-05T07:16:32;20.73;;;12.13;;
48076;SDS011;33854;57.708;12.008;2023-06-05T07:18:58;21.47;;;13.60;;
48076;SDS011;33854;57.708;12.008;2023-06-05T07:21:23;17.13;;;11.47;;
48076;SDS011;33854;57.708;12.008;2023-06-05T07:23:49;21.37;;;11.33;;
48076;SDS011;33854;57.708;12.008;2023-06-05T07:26:16;18.83;;;10.05;;
48076;SDS011;33854;57.708;12.008;2023-06-05T07:28:45;18.00;;;10.20;;
48076;SDS011;33854;57.708;12.008;2023-06-05T07:31:14;14.77;;;8.55;;
48076;SDS011;33854;57.708;12.008;2023-06-05T07:33:40;14.87;;;9.87;;
48076;SDS011;33854;57.708;12.008;2023-06-05T07:36:07;14.70;;;7.72;;
48076;SDS011;33854;57.708;12.008;2023-06-05T07:38:33;15.40;;;9.23;;
48076;SDS011;33854;57.708;12.008;2023-06-05T07:40:58;12.90;;;7.90;;
48076;SDS011;33854;57.708;12.008;2023-06-05T07:43:26;13.93;;;10.05;;
48076;SDS011;33854;57.708;12.008;2023-06-05T07:45:52;16.90;;;9.55;;
48076;SDS011;33854;57.708;12.008;2023-06-05T07:48:18;16.70;;;9.43;;
48076;SDS011;33854;57.708;12.008;2023-06-05T07:50:43;14.57;;;8.60;;
48076;SDS011;33854;57.708;12.008;2023-06-05T07:53:09;21.13;;;9.37;;
48076;SDS011;33854;57.708;12.008;2023-06-05T07:55:35;15.13;;;9.27;;
48076;SDS011;33854;57.708;12.008;2023-06-05T07:58:01;15.90;;;9.52;;
48076;SDS011;33854;57.708;12.008;2023-06-05T08:00:26;17.67;;;9.87;;
48076;SDS011;33854;57.708;12.008;2023-06-05T08:02:52;19.57;;;10.30;;
48076;SDS011;33854;57.708;12.008;2023-06-05T08:05:18;17.73;;;10.20;;
48076;SDS011;33854;57.708;12.008;2023-06-05T08:07:44;19.27;;;9.48;;
48076;SDS011;33854;57.708;12.008;2023-06-05T08:10:10;18.98;;;7.85;;
48076;SDS011;33854;57.708;12.008;2023-06-05T08:12:36;20.40;;;10.17;;
48076;SDS011;33854;57.708;12.008;2023-06-05T08:15:01;15.23;;;8.40;;
48076;SDS011;33854;57.708;12.008;2023-06-05T08:17:27;20.00;;;9.20;;
48076;SDS011;33854;57.708;12.008;2023-06-05T08:19:53;21.10;;;9.65;;
48076;SDS011;33854;57.708;12.008;2023-06-05T08:22:19;17.43;;;9.50;;
48076;SDS011;33854;57.708;12.008;2023-06-05T08:24:45;20.63;;;10.30;;
48076;SDS011;33854;57.708;12.008;2023-06-05T08:27:10;22.80;;;10.03;;
48076;SDS011;33854;57.708;12.008;2023-06-05T08:29:36;25.07;;;11.43;;
48076;SDS011;33854;57.708;12.008;2023-06-05T08:32:05;24.53;;;9.77;;
48076;SDS011;33854;57.708;12.008;2023-06-05T08:34:31;15.40;;;9.50;;
48076;SDS011;33854;57.708;12.008;2023-06-05T08:36:57;24.25;;;10.23;;
48076;SDS011;33854;57.708;12.008;2023-06-05T08:39:23;31.42;;;9.82;;
48076;SDS011;33854;57.708;12.008;2023-06-05T08:41:53;24.67;;;9.50;;
48076;SDS011;33854;57.708;12.008;2023-06-05T08:44:20;23.85;;;10.57;;
48076;SDS011;33854;57.708;12.008;2023-06-05T08:46:46;19.53;;;9.80;;
48076;SDS011;33854;57.708;12.008;2023-06-05T08:49:13;22.40;;;9.98;;
48076;SDS011;33854;57.708;12.008;2023-06-05T08:51:42;24.77;;;10.27;;
48076;SDS011;33854;57.708;12.008;2023-06-05T08:54:09;23.30;;;9.93;;
48076;SDS011;33854;57.708;12.008;2023-06-05T08:56:41;27.08;;;9.32;;
48076;SDS011;33854;57.708;12.008;2023-06-05T08:59:08;20.02;;;9.63;;
48076;SDS011;33854;57.708;12.008;2023-06-05T09:01:39;17.90;;;8.35;;
48076;SDS011;33854;57.708;12.008;2023-06-05T09:04:05;20.80;;;9.15;;
48076;SDS011;33854;57.708;12.008;2023-06-05T09:06:31;15.27;;;8.13;;
48076;SDS011;33854;57.708;12.008;2023-06-05T09:08:58;24.30;;;8.52;;
48076;SDS011;33854;57.708;12.008;2023-06-05T09:11:27;18.05;;;7.18;;
48076;SDS011;33854;57.708;12.008;2023-06-05T09:13:55;14.13;;;8.13;;
48076;SDS011;33854;57.708;12.008;2023-06-05T09:16:22;17.58;;;9.10;;
48076;SDS011;33854;57.708;12.008;2023-06-05T09:21:27;12.25;;;6.25;;
48076;SDS011;33854;57.708;12.008;2023-06-05T09:31:57;6.82;;;4.88;;
48076;SDS011;33854;57.708;12.008;2023-06-05T09:34:28;7.68;;;4.28;;
48076;SDS011;33854;57.708;12.008;2023-06-05T09:36:57;9.32;;;4.60;;
48076;SDS011;33854;57.708;12.008;2023-06-05T09:39:25;9.20;;;4.53;;
48076;SDS011;33854;57.708;12.008;2023-06-05T09:44:17;10.13;;;4.20;;
48076;SDS011;33854;57.708;12.008;2023-06-05T09:49:23;8.07;;;4.35;;
48076;SDS011;33854;57.708;12.008;2023-06-05T09:51:50;8.23;;;4.30;;
48076;SDS011;33854;57.708;12.008;2023-06-05T09:54:16;7.50;;;4.13;;
48076;SDS011;33854;57.708;12.008;2023-06-05T09:56:47;7.75;;;4.45;;
48076;SDS011;33854;57.708;12.008;2023-06-05T09:59:16;14.15;;;4.60;;
48076;SDS011;33854;57.708;12.008;2023-06-05T10:01:45;14.38;;;5.00;;
48076;SDS011;33854;57.708;12.008;2023-06-05T10:04:13;9.48;;;4.82;;
48076;SDS011;33854;57.708;12.008;2023-06-05T10:06:40;10.90;;;5.50;;
48076;SDS011;33854;57.708;12.008;2023-06-05T10:09:07;10.27;;;5.40;;
48076;SDS011;33854;57.708;12.008;2023-06-05T10:11:34;8.82;;;4.50;;
48076;SDS011;33854;57.708;12.008;2023-06-05T10:14:00;11.80;;;6.00;;
48076;SDS011;33854;57.708;12.008;2023-06-05T10:16:27;11.18;;;5.40;;
48076;SDS011;33854;57.708;12.008;2023-06-05T10:18:54;7.83;;;5.43;;
48076;SDS011;33854;57.708;12.008;2023-06-05T10:21:22;9.20;;;5.13;;
48076;SDS011;33854;57.708;12.008;2023-06-05T10:23:48;9.63;;;5.32;;
48076;SDS011;33854;57.708;12.008;2023-06-05T10:26:25;11.05;;;4.85;;
48076;SDS011;33854;57.708;12.008;2023-06-05T10:32:17;12.32;;;5.25;;
48076;SDS011;33854;57.708;12.008;2023-06-05T10:40:02;11.05;;;5.70;;
48076;SDS011;33854;57.708;12.008;2023-06-05T10:42:30;14.55;;;4.47;;
48076;SDS011;33854;57.708;12.008;2023-06-05T10:44:55;8.35;;;4.90;;
48076;SDS011;33854;57.708;12.008;2023-06-05T10:52:44;5.90;;;4.55;;
48076;SDS011;33854;57.708;12.008;2023-06-05T10:55:13;8.00;;;4.70;;
48076;SDS011;33854;57.708;12.008;2023-06-05T11:00:26;9.05;;;4.97;;
48076;SDS011;33854;57.708;12.008;2023-06-05T11:02:55;7.47;;;4.82;;
48076;SDS011;33854;57.708;12.008;2023-06-05T11:05:21;7.70;;;4.55;;
48076;SDS011;33854;57.708;12.008;2023-06-05T11:07:47;7.45;;;4.75;;
48076;SDS011;33854;57.708;12.008;2023-06-05T11:15:34;9.98;;;5.35;;
48076;SDS011;33854;57.708;12.008;2023-06-05T11:20:53;8.32;;;5.75;;
48076;SDS011;33854;57.708;12.008;2023-06-05T11:23:20;8.95;;;5.43;;
48076;SDS011;33854;57.708;12.008;2023-06-05T11:25:47;12.98;;;5.38;;
48076;SDS011;33854;57.708;12.008;2023-06-05T11:28:14;10.38;;;5.18;;
48076;SDS011;33854;57.708;12.008;2023-06-05T11:31:02;8.18;;;5.50;;
48076;SDS011;33854;57.708;12.008;2023-06-05T11:33:28;9.10;;;4.85;;
48076;SDS011;33854;57.708;12.008;2023-06-05T11:35:58;10.10;;;4.90;;
48076;SDS011;33854;57.708;12.008;2023-06-05T11:38:25;11.10;;;5.47;;
48076;SDS011;33854;57.708;12.008;2023-06-05T11:40:50;11.77;;;5.03;;
48076;SDS011;33854;57.708;12.008;2023-06-05T11:45:48;9.75;;;5.18;;
48076;SDS011;33854;57.708;12.008;2023-06-05T11:48:15;9.43;;;4.97;;
48076;SDS011;33854;57.708;12.008;2023-06-05T11:50:51;11.18;;;5.25;;
48076;SDS011;33854;57.708;12.008;2023-06-05T11:53:20;8.82;;;4.93;;
48076;SDS011;33854;57.708;12.008;2023-06-05T11:58:31;8.93;;;4.65;;
48076;SDS011;33854;57.708;12.008;2023-06-05T12:01:08;11.65;;;4.57;;
48076;SDS011;33854;57.708;12.008;2023-06-05T12:03:43;6.93;;;4.32;;
48076;SDS011;33854;57.708;12.008;2023-06-05T12:06:10;7.97;;;4.80;;
48076;SDS011;33854;57.708;12.008;2023-06-05T12:08:38;8.73;;;4.78;;
48076;SDS011;33854;57.708;12.008;2023-06-05T12:11:04;9.07;;;4.60;;
48076;SDS011;33854;57.708;12.008;2023-06-05T12:13:46;7.03;;;4.43;;
48076;SDS011;33854;57.708;12.008;2023-06-05T12:16:16;6.03;;;4.10;;
48076;SDS011;33854;57.708;12.008;2023-06-05T12:18:43;6.97;;;3.95;;
48076;SDS011;33854;57.708;12.008;2023-06-05T12:21:23;9.07;;;3.90;;
48076;SDS011;33854;57.708;12.008;2023-06-05T12:23:50;6.60;;;3.80;;
48076;SDS011;33854;57.708;12.008;2023-06-05T12:26:16;9.20;;;3.70;;
48076;SDS011;33854;57.708;12.008;2023-06-05T12:31:08;9.98;;;4.20;;
48076;SDS011;33854;57.708;12.008;2023-06-05T12:33:45;7.47;;;3.45;;
48076;SDS011;33854;57.708;12.008;2023-06-05T12:36:13;8.38;;;3.72;;
48076;SDS011;33854;57.708;12.008;2023-06-05T12:38:40;11.15;;;3.85;;
48076;SDS011;33854;57.708;12.008;2023-06-05T12:41:09;7.95;;;3.00;;
48076;SDS011;33854;57.708;12.008;2023-06-05T12:43:35;4.22;;;3.05;;
48076;SDS011;33854;57.708;12.008;2023-06-05T12:46:01;7.63;;;3.10;;
48076;SDS011;33854;57.708;12.008;2023-06-05T12:50:52;7.60;;;3.55;;
48076;SDS011;33854;57.708;12.008;2023-06-05T12:53:19;5.47;;;2.90;;
48076;SDS011;33854;57.708;12.008;2023-06-05T12:55:45;4.78;;;2.90;;
48076;SDS011;33854;57.708;12.008;2023-06-05T12:58:10;9.13;;;3.45;;
48076;SDS011;33854;57.708;12.008;2023-06-05T13:00:36;7.53;;;3.17;;
48076;SDS011;33854;57.708;12.008;2023-06-05T13:03:02;8.40;;;4.03;;
48076;SDS011;33854;57.708;12.008;2023-06-05T13:05:29;7.07;;;3.40;;
48076;SDS011;33854;57.708;12.008;2023-06-05T13:07:57;11.77;;;3.13;;
48076;SDS011;33854;57.708;12.008;2023-06-05T13:10:24;5.97;;;3.58;;
48076;SDS011;33854;57.708;12.008;2023-06-05T13:12:49;7.75;;;2.90;;
48076;SDS011;33854;57.708;12.008;2023-06-05T13:15:15;9.57;;;2.90;;
48076;SDS011;33854;57.708;12.008;2023-06-05T13:17:40;6.32;;;3.03;;
48076;SDS011;33854;57.708;12.008;2023-06-05T13:20:06;11.00;;;3.42;;
48076;SDS011;33854;57.708;12.008;2023-06-05T13:22:36;9.85;;;2.80;;
48076;SDS011;33854;57.708;12.008;2023-06-05T13:25:02;7.68;;;2.70;;
48076;SDS011;33854;57.708;12.008;2023-06-05T13:29:53;5.57;;;3.00;;
48076;SDS011;33854;57.708;12.008;2023-06-05T13:32:19;5.32;;;2.80;;
48076;SDS011;33854;57.708;12.008;2023-06-05T13:34:45;5.88;;;2.95;;
48076;SDS011;33854;57.708;12.008;2023-06-05T13:37:11;10.18;;;2.90;;
48076;SDS011;33854;57.708;12.008;2023-06-05T13:39:37;6.97;;;3.00;;
48076;SDS011;33854;57.708;12.008;2023-06-05T13:42:02;5.20;;;3.00;;
48076;SDS011;33854;57.708;12.008;2023-06-05T13:44:29;6.47;;;2.80;;
48076;SDS011;33854;57.708;12.008;2023-06-05T13:46:55;3.58;;;2.25;;
48076;SDS011;33854;57.708;12.008;2023-06-05T13:49:21;5.97;;;2.80;;
48076;SDS011;33854;57.708;12.008;2023-06-05T13:51:46;6.90;;;2.90;;
48076;SDS011;33854;57.708;12.008;2023-06-05T13:56:37;8.50;;;2.43;;
48076;SDS011;33854;57.708;12.008;2023-06-05T14:01:28;10.97;;;6.93;;
48076;SDS011;33854;57.708;12.008;2023-06-05T14:08:45;7.68;;;2.65;;
48076;SDS011;33854;57.708;12.008;2023-06-05T14:11:11;4.60;;;2.72;;
48076;SDS011;33854;57.708;12.008;2023-06-05T14:16:03;8.52;;;2.75;;
48076;SDS011;33854;57.708;12.008;2023-06-05T14:18:29;8.75;;;2.90;;
48076;SDS011;33854;57.708;12.008;2023-06-05T14:20:55;6.22;;;2.60;;
48076;SDS011;33854;57.708;12.008;2023-06-05T14:23:21;5.05;;;2.47;;
48076;SDS011;33854;57.708;12.008;2023-06-05T14:25:48;4.85;;;2.47;;
48076;SDS011;33854;57.708;12.008;2023-06-05T14:28:14;4.57;;;2.40;;
48076;SDS011;33854;57.708;12.008;2023-06-05T14:33:06;6.55;;;2.33;;
48076;SDS011;33854;57.708;12.008;2023-06-05T14:40:22;4.03;;;2.00;;
48076;SDS011;33854;57.708;12.008;2023-06-05T14:45:14;5.68;;;2.00;;
48076;SDS011;33854;57.708;12.008;2023-06-05T14:50:05;4.15;;;1.90;;
48076;SDS011;33854;57.708;12.008;2023-06-05T14:52:32;4.82;;;2.03;;
48076;SDS011;33854;57.708;12.008;2023-06-05T14:54:57;5.03;;;2.05;;
48076;SDS011;33854;57.708;12.008;2023-06-05T14:57:22;5.78;;;2.30;;
48076;SDS011;33854;57.708;12.008;2023-06-05T14:59:48;3.10;;;1.55;;
48076;SDS011;33854;57.708;12.008;2023-06-05T15:02:13;4.55;;;2.00;;
48076;SDS011;33854;57.708;12.008;2023-06-05T15:04:39;3.63;;;1.88;;
48076;SDS011;33854;57.708;12.008;2023-06-05T15:07:04;4.10;;;1.90;;
48076;SDS011;33854;57.708;12.008;2023-06-05T15:09:30;2.25;;;1.60;;
48076;SDS011;33854;57.708;12.008;2023-06-05T15:14:21;4.80;;;1.88;;
48076;SDS011;33854;57.708;12.008;2023-06-05T15:16:48;5.45;;;1.95;;
48076;SDS011;33854;57.708;12.008;2023-06-05T15:19:14;3.33;;;1.75;;
48076;SDS011;33854;57.708;12.008;2023-06-05T15:21:40;3.58;;;1.73;;
48076;SDS011;33854;57.708;12.008;2023-06-05T15:26:32;4.50;;;1.90;;
48076;SDS011;33854;57.708;12.008;2023-06-05T15:28:57;3.65;;;1.80;;
48076;SDS011;33854;57.708;12.008;2023-06-05T15:31:23;3.30;;;1.75;;
48076;SDS011;33854;57.708;12.008;2023-06-05T15:33:49;3.90;;;1.90;;
48076;SDS011;33854;57.708;12.008;2023-06-05T15:36:14;2.15;;;1.45;;
48076;SDS011;33854;57.708;12.008;2023-06-05T15:41:05;3.80;;;2.08;;
48076;SDS011;33854;57.708;12.008;2023-06-05T15:55:38;5.57;;;2.20;;
48076;SDS011;33854;57.708;12.008;2023-06-05T15:58:07;4.72;;;2.03;;
48076;SDS011;33854;57.708;12.008;2023-06-05T16:00:35;4.35;;;2.22;;
48076;SDS011;33854;57.708;12.008;2023-06-05T16:03:01;5.20;;;2.75;;
48076;SDS011;33854;57.708;12.008;2023-06-05T16:05:26;4.40;;;2.60;;
48076;SDS011;33854;57.708;12.008;2023-06-05T16:07:52;4.25;;;2.80;;
48076;SDS011;33854;57.708;12.008;2023-06-05T16:10:18;6.18;;;2.85;;
48076;SDS011;33854;57.708;12.008;2023-06-05T16:12:44;5.57;;;3.13;;
48076;SDS011;33854;57.708;12.008;2023-06-05T16:15:10;5.10;;;2.90;;
48076;SDS011;33854;57.708;12.008;2023-06-05T16:17:38;6.15;;;2.95;;
48076;SDS011;33854;57.708;12.008;2023-06-05T16:20:04;6.00;;;3.15;;
48076;SDS011;33854;57.708;12.008;2023-06-05T16:22:30;7.82;;;3.20;;